createdAt,value
2023-03-25T00:01:32.941Z,44.85
2023-03-25T00:04:04.614Z,45.28
2023-03-25T00:06:34.753Z,46.40
2023-03-25T00:09:04.931Z,44.77
2023-03-25T00:11:34.616Z,44.30
2023-03-25T00:14:04.892Z,44.75
2023-03-25T00:16:34.429Z,43.92
2023-03-25T00:19:03.753Z,44.53
2023-03-25T00:21:33.562Z,45.03
2023-03-25T00:24:03.121Z,43.13
2023-03-25T00:26:33.186Z,43.45
2023-03-25T00:29:02.434Z,42.88
2023-03-25T00:31:31.759Z,42.00
2023-03-25T00:34:01.023Z,43.02
2023-03-25T00:36:30.691Z,43.52
2023-03-25T00:38:59.984Z,42.67
2023-03-25T00:41:29.454Z,43.50
2023-03-25T00:44:00.745Z,41.65
2023-03-25T00:46:32.497Z,42.10
2023-03-25T00:49:02.228Z,40.15
2023-03-25T00:51:33.849Z,41.00
2023-03-25T00:54:03.341Z,42.55
2023-03-25T00:56:33.342Z,40.38
2023-03-25T00:59:02.876Z,40.88
2023-03-25T01:01:32.915Z,39.20
2023-03-25T01:04:02.324Z,39.58
2023-03-25T01:06:36.705Z,39.30
2023-03-25T01:09:08.218Z,38.88
2023-03-25T01:11:38.609Z,39.65
2023-03-25T01:14:11.533Z,38.73
2023-03-25T01:16:41.844Z,38.35
2023-03-25T01:19:11.484Z,37.73
2023-03-25T01:21:41.536Z,38.33
2023-03-25T01:24:13.197Z,37.60
2023-03-25T01:26:44.758Z,36.63
2023-03-25T01:29:16.183Z,36.70
2023-03-25T01:31:45.714Z,35.73
2023-03-25T01:34:16.122Z,36.15
2023-03-25T01:36:48.882Z,36.03
2023-03-25T01:39:19.796Z,35.50
2023-03-25T01:41:51.512Z,35.30
2023-03-25T01:44:24.202Z,35.70
2023-03-25T01:46:54.600Z,34.45
2023-03-25T01:49:30.453Z,33.85
2023-03-25T01:52:19.311Z,34.20
2023-03-25T01:54:49.462Z,33.05
2023-03-25T01:57:21.632Z,32.90
2023-03-25T01:59:52.748Z,32.48
2023-03-25T02:02:22.568Z,32.58
2023-03-25T02:05:00.726Z,32.85
2023-03-25T02:07:32.909Z,32.25
2023-03-25T02:10:06.640Z,31.30
2023-03-25T02:12:36.186Z,30.40
2023-03-25T02:15:07.739Z,30.17
2023-03-25T02:17:46.706Z,32.05
2023-03-25T02:20:34.757Z,30.60
2023-03-25T02:23:28.457Z,30.88
2023-03-25T02:26:17.559Z,29.67
2023-03-25T02:29:08.106Z,29.65
2023-03-25T02:31:54.886Z,28.98
2023-03-25T02:34:45.848Z,28.35
2023-03-25T02:37:35.416Z,28.65
2023-03-25T02:40:13.545Z,29.05
2023-03-25T02:42:51.767Z,28.40
2023-03-25T02:45:32.751Z,28.17
2023-03-25T02:48:05.500Z,27.65
2023-03-25T02:50:41.483Z,27.62
2023-03-25T02:53:14.437Z,27.30
2023-03-25T02:58:14.349Z,25.43
2023-03-25T03:00:44.335Z,26.27
2023-03-25T03:03:13.842Z,26.07
2023-03-25T03:05:48.130Z,26.68
2023-03-25T03:08:26.474Z,25.92
2023-03-25T03:11:16.345Z,24.87
2023-03-25T03:14:01.103Z,24.23
2023-03-25T03:16:50.201Z,24.15
2023-03-25T03:19:40.898Z,25.12
2023-03-25T03:22:16.974Z,23.90
2023-03-25T03:24:52.963Z,23.42
2023-03-25T03:27:43.706Z,23.60
2023-03-25T03:30:16.674Z,23.77
2023-03-25T03:32:57.820Z,23.02
2023-03-25T03:35:31.678Z,23.27
2023-03-25T03:38:03.733Z,22.55
2023-03-25T03:40:34.941Z,22.35
2023-03-25T03:43:07.380Z,22.50
2023-03-25T03:45:42.676Z,22.17
2023-03-25T03:48:23.960Z,21.33
2023-03-25T03:50:57.998Z,21.87
2023-03-25T03:53:39.118Z,21.12
2023-03-25T03:56:19.561Z,21.70
2023-03-25T03:58:49.775Z,20.88
2023-03-25T04:01:24.076Z,20.77
2023-03-25T04:03:59.171Z,20.48
2023-03-25T04:06:33.335Z,20.92
2023-03-25T04:09:06.532Z,20.80
2023-03-25T04:11:44.451Z,19.48
2023-03-25T04:14:14.888Z,19.30
2023-03-25T04:16:45.920Z,19.85
2023-03-25T04:19:17.008Z,19.20
2023-03-25T04:21:48.903Z,18.73
2023-03-25T04:24:19.776Z,18.98
2023-03-25T04:26:49.998Z,19.17
2023-03-25T04:29:19.372Z,18.65
2023-03-25T04:31:50.105Z,17.50
2023-03-25T04:34:20.719Z,17.73
2023-03-25T04:36:54.858Z,17.02
2023-03-25T04:39:25.755Z,17.35
2023-03-25T04:41:56.595Z,17.25
2023-03-25T04:44:26.129Z,16.95
2023-03-25T04:46:59.237Z,16.67
2023-03-25T04:49:28.520Z,16.90
2023-03-25T04:51:57.983Z,17.17
2023-03-25T04:54:27.349Z,15.95
2023-03-25T04:56:58.552Z,16.55
2023-03-25T04:59:28.212Z,15.70
2023-03-25T05:01:57.674Z,15.88
2023-03-25T05:04:27.130Z,14.98
2023-03-25T05:06:56.911Z,15.32
2023-03-25T05:09:26.828Z,15.75
2023-03-25T05:11:56.409Z,14.68
2023-03-25T05:14:25.699Z,14.78
2023-03-25T05:16:56.648Z,14.33
2023-03-25T05:19:25.936Z,14.55
2023-03-25T05:21:56.334Z,14.25
2023-03-25T05:24:26.331Z,14.40
2023-03-25T05:26:55.641Z,13.80
2023-03-25T05:29:24.963Z,13.60
2023-03-25T05:31:54.349Z,13.80
2023-03-25T05:34:25.674Z,13.70
2023-03-25T05:36:54.992Z,13.80
2023-03-25T05:39:24.431Z,13.28
2023-03-25T05:41:55.373Z,13.40
2023-03-25T05:44:26.278Z,13.25
2023-03-25T05:46:56.545Z,13.20
2023-03-25T05:49:27.231Z,12.45
2023-03-25T05:51:57.064Z,12.55
2023-03-25T05:54:26.553Z,11.90
2023-03-25T05:56:56.158Z,12.23
2023-03-25T05:59:25.931Z,12.07
2023-03-25T06:01:55.221Z,12.43
2023-03-25T06:04:24.912Z,11.80
2023-03-25T06:06:54.188Z,12.33
2023-03-25T06:09:23.648Z,12.10
2023-03-25T06:11:53.711Z,11.97
2023-03-25T06:14:25.111Z,11.38
2023-03-25T06:16:56.016Z,11.08
2023-03-25T06:19:26.534Z,11.05
2023-03-25T06:21:56.061Z,11.60
2023-03-25T06:24:25.374Z,10.35
2023-03-25T06:26:54.653Z,11.12
2023-03-25T06:29:24.206Z,11.12
2023-03-25T06:31:53.506Z,11.03
2023-03-25T06:34:23.751Z,10.93
2023-03-25T06:36:54.189Z,10.53
2023-03-25T06:39:23.513Z,10.40
2023-03-25T06:41:54.095Z,10.03
2023-03-25T06:44:25.401Z,10.28
2023-03-25T06:47:12.564Z,10.00
2023-03-25T06:49:44.096Z,9.68
2023-03-25T06:52:17.456Z,10.03
2023-03-25T06:54:54.105Z,9.85
2023-03-25T06:57:23.556Z,9.45
2023-03-25T07:00:02.790Z,9.05
2023-03-25T07:02:32.869Z,8.98
2023-03-25T07:05:10.410Z,9.35
2023-03-25T07:07:40.492Z,9.00
2023-03-25T07:10:12.963Z,8.60
2023-03-25T07:12:43.401Z,9.00
2023-03-25T07:15:13.399Z,8.88
2023-03-25T07:17:43.357Z,9.08
2023-03-25T07:20:16.879Z,9.60
2023-03-25T07:22:47.354Z,9.05
2023-03-25T07:25:26.735Z,9.08
2023-03-25T07:27:56.331Z,9.30
2023-03-25T07:30:26.057Z,9.48
2023-03-25T07:32:55.366Z,9.63
2023-03-25T07:35:25.106Z,9.33
2023-03-25T07:37:54.399Z,9.40
2023-03-25T07:40:23.968Z,10.10
2023-03-25T07:42:53.282Z,10.23
2023-03-25T07:45:24.321Z,9.90
2023-03-25T07:47:54.389Z,10.15
2023-03-25T07:50:25.296Z,10.10
2023-03-25T07:52:56.133Z,10.47
2023-03-25T07:55:25.858Z,10.43
2023-03-25T07:57:56.393Z,10.75
2023-03-25T08:00:26.068Z,10.72
2023-03-25T08:02:55.636Z,10.72
2023-03-25T08:05:25.404Z,11.30
2023-03-25T08:07:55.535Z,12.10
2023-03-25T08:10:25.441Z,13.00
2023-03-25T08:12:55.186Z,12.75
2023-03-25T08:15:25.044Z,14.38
2023-03-25T08:17:54.506Z,14.63
2023-03-25T08:20:24.382Z,14.47
2023-03-25T08:22:53.763Z,15.25
2023-03-25T08:25:23.424Z,15.28
2023-03-25T08:27:52.852Z,15.95
2023-03-25T08:30:22.991Z,15.90
2023-03-25T08:32:53.964Z,15.83
2023-03-25T08:35:24.750Z,16.27
2023-03-25T08:37:54.056Z,16.05
2023-03-25T08:40:23.411Z,16.67
2023-03-25T08:42:52.873Z,16.00
2023-03-25T08:45:22.195Z,16.93
2023-03-25T08:47:51.650Z,16.80
2023-03-25T08:50:21.397Z,15.85
2023-03-25T08:52:52.401Z,16.45
2023-03-25T08:55:21.758Z,17.67
2023-03-25T08:57:51.278Z,17.65
2023-03-25T09:00:22.741Z,16.95
2023-03-25T09:02:52.115Z,17.35
2023-03-25T09:05:21.988Z,17.10
2023-03-25T09:07:52.781Z,16.90
2023-03-25T09:10:28.341Z,17.87
2023-03-25T09:12:58.945Z,17.67
2023-03-25T09:15:30.279Z,17.30
2023-03-25T09:18:06.263Z,19.03
2023-03-25T09:20:43.570Z,18.55
2023-03-25T09:23:14.709Z,19.17
2023-03-25T09:25:45.288Z,20.15
2023-03-25T09:28:14.643Z,21.35
2023-03-25T09:30:44.276Z,21.20
2023-03-25T09:33:14.161Z,21.05
2023-03-25T09:35:43.897Z,21.55
2023-03-25T09:38:13.764Z,21.17
2023-03-25T09:40:44.210Z,21.77
2023-03-25T09:43:35.266Z,20.57
2023-03-25T09:46:05.338Z,22.13
2023-03-25T09:48:57.376Z,21.50
2023-03-25T09:51:31.724Z,21.82
2023-03-25T09:54:16.528Z,23.00
2023-03-25T09:56:46.297Z,23.57
2023-03-25T09:59:19.040Z,23.27
2023-03-25T10:02:11.142Z,25.50
2023-03-25T10:05:00.654Z,25.80
2023-03-25T10:07:54.290Z,26.35
2023-03-25T10:10:51.520Z,28.10
2023-03-25T10:13:30.472Z,30.02
2023-03-25T10:16:09.306Z,28.85
2023-03-25T10:18:56.789Z,29.20
2023-03-25T10:21:41.875Z,29.15
2023-03-25T10:24:28.995Z,28.80
2023-03-25T10:27:18.191Z,29.32
2023-03-25T10:29:56.767Z,29.70
2023-03-25T10:32:44.920Z,28.17
2023-03-25T10:35:20.371Z,28.40
2023-03-25T10:37:52.792Z,29.57
2023-03-25T10:40:31.332Z,28.92
2023-03-25T10:43:26.294Z,28.55
2023-03-25T10:46:05.216Z,29.23
2023-03-25T10:48:34.984Z,28.52
2023-03-25T10:51:12.567Z,30.77
2023-03-25T10:53:42.552Z,31.95
2023-03-25T10:56:23.769Z,31.45
2023-03-25T10:58:55.970Z,30.50
2023-03-25T11:01:39.431Z,32.75
2023-03-25T11:04:11.461Z,33.53
2023-03-25T11:06:42.695Z,33.45
2023-03-25T11:09:26.807Z,33.73
2023-03-25T11:11:56.103Z,33.28
2023-03-25T11:14:27.891Z,33.95
2023-03-25T11:17:04.234Z,34.48
2023-03-25T11:19:54.707Z,34.55
2023-03-25T11:22:29.604Z,33.70
2023-03-25T11:25:14.422Z,34.05
2023-03-25T11:27:47.207Z,33.78
2023-03-25T11:32:59.417Z,31.07
2023-03-25T11:35:31.450Z,33.42
2023-03-25T11:38:03.086Z,33.63
2023-03-25T11:40:33.899Z,34.65
2023-03-25T11:43:04.449Z,32.93
2023-03-25T11:45:37.758Z,34.00
2023-03-25T11:48:19.132Z,34.65
2023-03-25T11:50:56.796Z,34.78
2023-03-25T11:53:27.985Z,35.25
2023-03-25T11:56:00.437Z,36.65
2023-03-25T11:58:33.288Z,36.85
2023-03-25T12:01:05.950Z,35.92
2023-03-25T12:03:36.414Z,35.95
2023-03-25T12:06:09.157Z,36.75
2023-03-25T12:11:17.651Z,34.98
2023-03-25T12:16:46.056Z,34.80
2023-03-25T12:19:24.454Z,34.40
2023-03-25T12:21:57.119Z,35.45
2023-03-25T12:24:53.670Z,35.15
2023-03-25T12:27:35.315Z,34.40
2023-03-25T12:30:08.329Z,34.53
2023-03-25T12:32:46.620Z,34.38
2023-03-25T12:35:45.288Z,33.98
2023-03-25T12:38:23.608Z,33.45
2023-03-25T12:41:10.078Z,32.30
2023-03-25T12:43:48.050Z,32.95
2023-03-25T12:46:23.961Z,33.78
2023-03-25T12:49:14.537Z,31.80
2023-03-25T12:52:05.487Z,31.93
2023-03-25T12:54:43.543Z,28.45
2023-03-25T12:57:32.857Z,27.80
2023-03-25T13:00:14.976Z,27.17
2023-03-25T13:03:13.155Z,28.75
2023-03-25T13:05:49.056Z,27.27
2023-03-25T13:08:30.844Z,26.87
2023-03-25T13:11:06.442Z,27.67
2023-03-25T13:13:37.200Z,22.55
2023-03-25T13:16:13.203Z,21.12
